createdAt,value
2019-05-09T00:02:14.542Z,85.92
2019-05-09T00:05:28.041Z,86.20
2019-05-09T00:08:43.945Z,86.45
2019-05-09T00:11:57.329Z,86.61
2019-05-09T00:15:13.654Z,86.07
2019-05-09T00:18:27.274Z,85.18
2019-05-09T00:21:43.713Z,85.75
2019-05-09T00:24:57.229Z,86.42
2019-05-09T00:28:10.698Z,86.58
2019-05-09T00:31:35.762Z,86.82
2019-05-09T00:34:56.456Z,86.16
2019-05-09T00:38:10.210Z,86.71
2019-05-09T00:41:23.984Z,86.79
2019-05-09T00:44:39.756Z,86.81
2019-05-09T00:47:53.939Z,86.59
2019-05-09T00:51:07.593Z,87.00
2019-05-09T00:54:21.254Z,86.88
2019-05-09T00:57:34.998Z,87.09
2019-05-09T01:00:48.665Z,86.88
2019-05-09T01:04:04.379Z,86.96
2019-05-09T01:07:17.708Z,86.80
2019-05-09T01:10:31.173Z,87.03
2019-05-09T01:13:44.657Z,86.72
2019-05-09T01:16:58.129Z,86.93
2019-05-09T01:20:12.004Z,86.66
2019-05-09T01:23:25.726Z,86.84
2019-05-09T01:26:39.299Z,86.51
2019-05-09T01:29:53.590Z,85.86
2019-05-09T01:33:26.755Z,86.56
2019-05-09T01:36:58.554Z,86.08
2019-05-09T01:40:13.308Z,86.49
2019-05-09T01:43:27.177Z,86.57
2019-05-09T01:46:40.673Z,86.62
2019-05-09T01:49:54.153Z,86.66
2019-05-09T01:53:07.930Z,86.59
2019-05-09T01:56:23.516Z,86.58
2019-05-09T01:59:36.805Z,86.49
2019-05-09T02:02:50.516Z,86.15
2019-05-09T02:06:04.608Z,86.38
2019-05-09T02:09:18.436Z,86.61
2019-05-09T02:12:33.864Z,86.35
2019-05-09T02:16:14.156Z,86.44
2019-05-09T02:19:33.466Z,86.78
2019-05-09T02:22:46.987Z,86.38
2019-05-09T02:26:00.563Z,86.59
2019-05-09T02:29:14.070Z,86.86
2019-05-09T02:32:27.919Z,86.96
2019-05-09T02:35:55.744Z,87.30
2019-05-09T02:38:59.067Z,87.43
2019-05-09T02:42:14.338Z,87.47
2019-05-09T02:45:32.706Z,87.19
2019-05-09T02:48:49.363Z,87.46
2019-05-09T02:52:01.763Z,87.63
2019-05-09T02:55:18.235Z,87.93
2019-05-09T02:58:35.462Z,87.72
2019-05-09T03:02:03.085Z,87.92
2019-05-09T03:05:19.575Z,88.02
2019-05-09T03:08:32.667Z,88.01
2019-05-09T03:11:48.511Z,88.07
2019-05-09T03:15:01.852Z,88.14
2019-05-09T03:18:18.136Z,87.66
2019-05-09T03:21:39.027Z,87.40
2019-05-09T03:24:51.736Z,87.25
2019-05-09T03:28:12.146Z,87.54
2019-05-09T03:31:29.855Z,87.48
2019-05-09T03:34:42.125Z,87.21
2019-05-09T03:38:04.646Z,87.17
2019-05-09T03:41:18.127Z,87.26
2019-05-09T03:44:32.402Z,87.36
2019-05-09T03:47:50.332Z,87.45
2019-05-09T03:51:03.843Z,87.40
2019-05-09T03:54:18.341Z,87.26
2019-05-09T03:57:37.163Z,86.98
2019-05-09T04:00:50.422Z,86.73
2019-05-09T04:04:04.209Z,86.94
2019-05-09T04:07:18.660Z,87.07
2019-05-09T04:10:32.300Z,87.47
2019-05-09T04:13:58.113Z,87.04
2019-05-09T04:17:12.283Z,86.75
2019-05-09T04:20:27.709Z,86.23
2019-05-09T04:23:41.454Z,86.36
2019-05-09T04:27:07.966Z,86.70
2019-05-09T04:30:21.434Z,86.65
2019-05-09T04:33:34.945Z,86.64
2019-05-09T04:36:48.704Z,87.20
2019-05-09T04:40:03.518Z,87.43
2019-05-09T04:43:26.797Z,87.30
2019-05-09T04:46:32.542Z,87.42
2019-05-09T04:49:47.924Z,87.85
2019-05-09T04:53:01.981Z,88.41
2019-05-09T04:56:20.901Z,88.62
2019-05-09T04:59:34.448Z,88.81
2019-05-09T05:02:49.507Z,88.82
2019-05-09T05:06:03.187Z,88.85
2019-05-09T05:09:20.297Z,88.93
2019-05-09T05:16:39.234Z,88.97
2019-05-09T05:19:52.326Z,88.99
2019-05-09T05:23:14.801Z,88.98
2019-05-09T05:26:28.295Z,88.96
2019-05-09T05:29:41.780Z,88.25
2019-05-09T05:33:04.572Z,87.35
2019-05-09T05:36:18.208Z,86.12
2019-05-09T05:39:31.663Z,85.24
2019-05-09T05:42:48.387Z,84.74
2019-05-09T05:46:24.580Z,82.31
2019-05-09T05:49:38.562Z,82.97
2019-05-09T05:52:52.243Z,82.07
2019-05-09T05:56:08.385Z,81.37
2019-05-09T05:59:21.603Z,81.52
2019-05-09T06:02:35.444Z,81.55
2019-05-09T06:05:51.703Z,80.89
2019-05-09T06:09:08.299Z,80.07
2019-05-09T06:12:21.800Z,81.22
2019-05-09T06:15:37.954Z,80.25
2019-05-09T06:18:51.583Z,80.56
2019-05-09T06:22:05.352Z,81.39
2019-05-09T06:25:21.242Z,81.81
2019-05-09T06:28:35.005Z,82.20
2019-05-09T06:31:48.689Z,82.77
2019-05-09T06:35:02.524Z,83.43
2019-05-09T06:38:18.626Z,84.18
2019-05-09T06:41:31.511Z,84.54
2019-05-09T06:45:04.899Z,84.63
2019-05-09T06:48:18.326Z,85.49
2019-05-09T06:51:31.809Z,85.89
2019-05-09T06:54:45.571Z,85.44
2019-05-09T06:58:00.966Z,86.17
2019-05-09T07:01:41.389Z,85.35
2019-05-09T07:05:07.642Z,85.54
2019-05-09T07:08:30.999Z,84.82
2019-05-09T07:11:43.191Z,84.11
2019-05-09T07:14:58.181Z,85.78
2019-05-09T07:18:11.895Z,85.71
2019-05-09T07:21:45.141Z,84.56
2019-05-09T07:25:06.436Z,85.81
2019-05-09T07:28:18.287Z,84.75
2019-05-09T07:31:47.919Z,84.67
2019-05-09T07:35:01.600Z,84.08
2019-05-09T07:38:17.765Z,83.29
2019-05-09T07:41:33.682Z,83.39
2019-05-09T07:44:52.075Z,83.03
2019-05-09T07:48:02.238Z,83.26
2019-05-09T07:51:18.078Z,82.84
2019-05-09T07:54:31.658Z,83.18
2019-05-09T07:57:53.635Z,82.38
2019-05-09T08:01:01.641Z,81.67
2019-05-09T08:04:15.310Z,81.05
2019-05-09T08:07:29.178Z,81.72
2019-05-09T08:10:42.782Z,82.76
2019-05-09T08:13:57.523Z,82.76
2019-05-09T08:17:11.138Z,83.36
2019-05-09T08:20:24.621Z,83.70
2019-05-09T08:23:38.192Z,83.58
2019-05-09T08:26:51.691Z,83.99
2019-05-09T08:30:07.882Z,84.45
2019-05-09T08:33:21.226Z,84.48
2019-05-09T08:36:34.783Z,84.65
2019-05-09T08:39:48.600Z,84.71
2019-05-09T08:43:02.392Z,84.87
2019-05-09T08:46:18.138Z,85.31
2019-05-09T08:49:51.120Z,85.31
2019-05-09T08:53:05.017Z,86.91
2019-05-09T08:56:18.572Z,87.95
2019-05-09T08:59:32.470Z,87.60
2019-05-09T09:02:48.201Z,87.43
2019-05-09T09:06:01.945Z,87.05
2019-05-09T09:09:17.899Z,87.42
2019-05-09T09:12:34.379Z,88.11
2019-05-09T09:16:04.933Z,87.93
2019-05-09T09:19:01.642Z,88.29
2019-05-09T09:22:15.102Z,88.36
2019-05-09T09:25:28.918Z,87.77
2019-05-09T09:28:42.344Z,87.36
2019-05-09T09:31:57.680Z,88.09
2019-05-09T09:35:11.763Z,87.60
2019-05-09T09:38:25.564Z,86.96
2019-05-09T09:41:39.049Z,86.03
2019-05-09T09:44:52.654Z,86.38
2019-05-09T09:48:08.611Z,86.14
2019-05-09T09:51:21.773Z,85.96
2019-05-09T09:54:38.337Z,86.14
2019-05-09T09:57:51.317Z,86.04
2019-05-09T10:01:22.937Z,84.84
2019-05-09T10:04:37.526Z,86.02
2019-05-09T10:07:51.521Z,85.11
2019-05-09T10:11:07.856Z,85.57
2019-05-09T10:14:28.429Z,85.87
2019-05-09T10:17:48.515Z,85.66
2019-05-09T10:21:09.558Z,86.07
2019-05-09T10:24:23.460Z,86.23
2019-05-09T10:27:38.746Z,85.85
2019-05-09T10:30:52.434Z,86.52
2019-05-09T10:34:06.146Z,86.33
2019-05-09T10:37:20.050Z,85.92
2019-05-09T10:40:33.852Z,84.75
2019-05-09T10:44:19.546Z,84.76
2019-05-09T10:47:33.185Z,83.33
2019-05-09T10:50:54.263Z,84.71
2019-05-09T10:54:03.331Z,84.42
2019-05-09T10:57:16.950Z,84.00
2019-05-09T11:00:30.809Z,85.01
2019-05-09T11:03:44.329Z,85.14
2019-05-09T11:06:58.462Z,85.25
2019-05-09T11:10:24.537Z,84.09
2019-05-09T11:13:28.734Z,83.62
2019-05-09T11:16:46.476Z,83.83
2019-05-09T11:19:58.829Z,84.22
2019-05-09T11:23:12.518Z,83.37
2019-05-09T11:26:28.545Z,83.91
2019-05-09T11:29:42.410Z,83.80
2019-05-09T11:32:56.032Z,85.88
2019-05-09T11:36:10.013Z,86.22
2019-05-09T11:39:35.773Z,86.78
2019-05-09T11:42:40.307Z,86.77
2019-05-09T11:45:54.125Z,86.66
2019-05-09T11:49:08.702Z,86.92
2019-05-09T11:52:22.366Z,86.81
2019-05-09T11:55:42.407Z,86.91
2019-05-09T11:58:51.464Z,86.22
2019-05-09T12:02:05.468Z,86.61
2019-05-09T12:05:19.423Z,86.51
2019-05-09T12:08:32.956Z,86.23
2019-05-09T12:11:48.255Z,86.25
2019-05-09T12:16:37.956Z,87.25
2019-05-09T12:19:50.914Z,88.22
2019-05-09T12:23:04.976Z,87.47
2019-05-09T12:26:18.819Z,86.98
2019-05-09T12:29:32.335Z,86.71
2019-05-09T12:32:45.817Z,86.53
2019-05-09T12:35:59.516Z,87.45
2019-05-09T12:39:13.526Z,86.74
2019-05-09T12:42:28.936Z,86.13
2019-05-09T12:45:43.334Z,85.57
2019-05-09T12:48:59.184Z,86.36
2019-05-09T12:52:12.216Z,85.76
2019-05-09T12:55:27.581Z,85.81
2019-05-09T12:58:41.262Z,86.19
2019-05-09T13:01:57.860Z,85.17
2019-05-09T13:05:11.313Z,85.00
2019-05-09T13:08:27.762Z,84.15
2019-05-09T13:11:41.475Z,82.87
2019-05-09T13:14:57.836Z,83.16
2019-05-09T13:18:21.729Z,84.52
2019-05-09T13:21:29.724Z,85.41
2019-05-09T13:24:42.268Z,86.68
2019-05-09T13:27:58.232Z,85.95
2019-05-09T13:31:11.843Z,84.97
2019-05-09T13:34:28.180Z,85.48
2019-05-09T13:37:41.096Z,83.26
2019-05-09T13:40:58.216Z,81.78
2019-05-09T13:44:13.856Z,82.77
2019-05-09T13:47:27.997Z,81.33
2019-05-09T13:50:41.832Z,82.10
2019-05-09T13:53:55.795Z,82.86
2019-05-09T13:57:11.312Z,83.68
2019-05-09T14:00:24.832Z,85.82
2019-05-09T14:03:38.821Z,86.21
2019-05-09T14:06:52.556Z,85.80
2019-05-09T14:10:09.010Z,84.52
2019-05-09T14:13:23.534Z,84.23
2019-05-09T14:16:38.827Z,84.42
2019-05-09T14:19:52.606Z,81.08
2019-05-09T14:23:11.185Z,80.50
2019-05-09T14:26:21.574Z,81.82
2019-05-09T14:29:35.066Z,80.76
2019-05-09T14:32:49.828Z,80.16
2019-05-09T14:36:03.902Z,78.08
2019-05-09T14:39:18.151Z,75.12
2019-05-09T14:42:31.726Z,76.08
2019-05-09T14:45:45.463Z,74.01
2019-05-09T14:48:59.582Z,74.16
2019-05-09T14:52:14.126Z,73.62
2019-05-09T14:55:28.543Z,72.36
2019-05-09T14:58:42.318Z,71.71
2019-05-09T15:01:58.887Z,74.57
2019-05-09T15:05:11.532Z,74.20
2019-05-09T15:08:25.021Z,75.91
2019-05-09T15:11:39.445Z,77.37
2019-05-09T15:14:53.411Z,77.41
2019-05-09T15:18:08.131Z,76.39
2019-05-09T15:21:22.133Z,75.97
2019-05-09T15:24:35.766Z,76.39
2019-05-09T15:27:49.709Z,74.88
2019-05-09T15:31:03.890Z,71.83
2019-05-09T15:34:18.567Z,72.17
2019-05-09T15:37:32.232Z,67.11
2019-05-09T15:40:48.183Z,65.98
2019-05-09T15:44:10.220Z,68.17
2019-05-09T15:47:28.198Z,68.40
2019-05-09T15:50:41.898Z,69.43
2019-05-09T15:53:57.598Z,70.91
2019-05-09T15:57:13.322Z,72.96
2019-05-09T16:00:28.379Z,71.32
2019-05-09T16:03:42.247Z,72.25
2019-05-09T16:06:55.783Z,73.51
2019-05-09T16:10:09.575Z,73.01
2019-05-09T16:13:23.087Z,73.13
2019-05-09T16:16:38.600Z,73.12
2019-05-09T16:19:52.116Z,73.06
2019-05-09T16:23:08.352Z,74.49
2019-05-09T16:26:21.168Z,72.85
2019-05-09T16:29:34.811Z,74.42
2019-05-09T16:32:48.419Z,74.31
2019-05-09T16:36:02.031Z,74.85
2019-05-09T16:39:17.941Z,75.90
2019-05-09T16:42:31.489Z,75.42
2019-05-09T16:45:47.530Z,76.26
2019-05-09T16:49:00.834Z,75.66
2019-05-09T16:52:14.589Z,75.17
2019-05-09T16:55:32.499Z,76.23
2019-05-09T16:58:46.516Z,77.46
2019-05-09T17:02:16.883Z,77.71
2019-05-09T17:05:17.447Z,78.11
2019-05-09T17:08:31.255Z,78.85
2019-05-09T17:11:44.969Z,80.25
2019-05-09T17:14:59.710Z,78.91
2019-05-09T17:18:13.381Z,79.23
2019-05-09T17:21:37.522Z,79.73
2019-05-09T17:24:50.733Z,79.25
2019-05-09T17:28:04.347Z,78.76
2019-05-09T17:31:18.313Z,78.09
2019-05-09T17:34:32.259Z,79.79
2019-05-09T17:37:48.000Z,79.37
2019-05-09T17:41:01.615Z,79.27
2019-05-09T17:44:15.119Z,78.46
2019-05-09T17:47:29.083Z,79.67
2019-05-09T17:50:42.670Z,79.75
2019-05-09T17:53:58.353Z,79.89
2019-05-09T17:57:12.126Z,79.29
2019-05-09T18:00:27.966Z,78.42
2019-05-09T18:03:41.655Z,78.48
2019-05-09T18:06:58.215Z,79.17
2019-05-09T18:10:12.858Z,80.20
2019-05-09T18:13:29.659Z,81.56
2019-05-09T18:16:41.956Z,82.62
2019-05-09T18:19:55.532Z,83.11
2019-05-09T18:23:09.211Z,83.29
2019-05-09T18:26:23.070Z,83.98
2019-05-09T18:29:38.051Z,84.28
2019-05-09T18:33:00.957Z,84.45
2019-05-09T18:36:14.955Z,84.75
2019-05-09T18:39:28.491Z,85.24
2019-05-09T18:42:42.138Z,85.45
2019-05-09T18:45:57.718Z,85.70
2019-05-09T18:49:11.249Z,86.38
2019-05-09T18:52:24.858Z,86.32
2019-05-09T18:55:39.106Z,86.34
2019-05-09T18:58:52.577Z,86.14
2019-05-09T19:02:06.302Z,86.30
2019-05-09T19:05:20.312Z,86.22
2019-05-09T19:08:34.225Z,86.17
2019-05-09T19:11:47.853Z,86.22
2019-05-09T19:15:03.659Z,85.61
2019-05-09T19:18:37.236Z,85.11
2019-05-09T19:21:56.691Z,84.93
2019-05-09T19:25:10.687Z,83.74
2019-05-09T19:28:24.555Z,84.99
2019-05-09T19:31:38.731Z,85.12
2019-05-09T19:34:52.866Z,85.74
2019-05-09T19:38:06.390Z,85.94
2019-05-09T19:41:20.190Z,85.48
2019-05-09T19:44:34.116Z,86.15
2019-05-09T19:47:47.721Z,85.28
2019-05-09T19:51:01.181Z,85.62
2019-05-09T19:54:14.756Z,85.60
2019-05-09T19:57:28.346Z,86.16
2019-05-09T20:00:41.833Z,85.76
2019-05-09T20:03:55.438Z,86.32
2019-05-09T20:07:08.948Z,85.01
2019-05-09T20:10:40.782Z,85.81
2019-05-09T20:14:26.572Z,86.50
2019-05-09T20:17:40.062Z,86.62
2019-05-09T20:20:53.801Z,86.85
2019-05-09T20:24:09.346Z,87.40
2019-05-09T20:27:23.385Z,87.20
2019-05-09T20:30:36.873Z,87.57
2019-05-09T20:33:50.355Z,87.75
2019-05-09T20:37:04.075Z,88.02
2019-05-09T20:40:17.656Z,88.21
2019-05-09T20:43:31.560Z,88.34
2019-05-09T20:46:45.172Z,88.68
2019-05-09T20:49:58.895Z,89.02
2019-05-09T20:53:12.392Z,88.92
2019-05-09T20:56:25.990Z,88.58
2019-05-09T20:59:39.474Z,88.56
2019-05-09T21:02:52.987Z,88.32
2019-05-09T21:06:06.467Z,88.95
2019-05-09T21:09:20.058Z,89.56
2019-05-09T21:16:36.281Z,89.52
2019-05-09T21:19:50.029Z,89.76
2019-05-09T21:23:03.524Z,89.46
2019-05-09T21:26:17.098Z,89.20
2019-05-09T21:29:31.209Z,89.33
2019-05-09T21:32:44.993Z,89.25
2019-05-09T21:35:58.489Z,89.08
2019-05-09T21:39:11.973Z,88.34
2019-05-09T21:42:25.563Z,87.93
2019-05-09T21:45:39.347Z,88.31
2019-05-09T21:48:53.443Z,87.88
2019-05-09T21:52:06.935Z,87.74
2019-05-09T21:55:20.813Z,87.94
2019-05-09T21:58:34.307Z,87.96
2019-05-09T22:01:47.988Z,88.01
2019-05-09T22:05:01.683Z,86.47
2019-05-09T22:08:15.368Z,86.91
2019-05-09T22:11:28.848Z,87.46
2019-05-09T22:14:42.697Z,87.52
2019-05-09T22:17:56.312Z,87.73
2019-05-09T22:21:20.478Z,87.59
2019-05-09T22:24:33.958Z,87.11
2019-05-09T22:27:48.012Z,86.32
2019-05-09T22:31:01.483Z,85.84
2019-05-09T22:34:15.078Z,86.13
2019-05-09T22:37:28.766Z,86.68
2019-05-09T22:40:42.630Z,86.64
2019-05-09T22:43:56.114Z,86.45
2019-05-09T22:47:10.192Z,86.72
2019-05-09T22:50:23.692Z,87.06
2019-05-09T22:53:37.509Z,86.91
2019-05-09T22:56:51.124Z,86.92
2019-05-09T23:00:05.509Z,86.71
2019-05-09T23:03:18.996Z,87.11
2019-05-09T23:06:32.585Z,87.32
2019-05-09T23:09:46.070Z,87.29
2019-05-09T23:12:59.555Z,87.51
2019-05-09T23:16:13.018Z,87.40
2019-05-09T23:19:26.497Z,87.18
2019-05-09T23:22:39.978Z,87.62
2019-05-09T23:25:53.782Z,87.56
2019-05-09T23:29:07.681Z,87.91
2019-05-09T23:32:29.819Z,88.03
2019-05-09T23:35:43.322Z,88.06
2019-05-09T23:39:16.807Z,88.38
2019-05-09T23:42:30.295Z,88.31
2019-05-09T23:45:43.978Z,88.77
2019-05-09T23:48:57.720Z,88.71
2019-05-09T23:52:11.377Z,88.62
2019-05-09T23:55:42.972Z,88.81
2019-05-09T23:59:14.554Z,87.38
